Time;durP1;ratioP1;P1;durP2;ratioP2;P2;SDS_P1;SDS_P2;PMS_P1;PMS_P2;Temp;Humidity;BMP_temperature;BMP_pressure;BME280_temperature;BME280_humidity;BME280_pressure;Samples;Min_cycle;Max_cycle;Signal;HPM_P1;HPM_P2
2023/10/07 00:00:47;;;;;;;7.55;0.82;;;15.60;99.90;;;;;;5035839;28;20067;-68
2023/10/07 00:03:18;;;;;;;0.63;0.60;;;15.60;99.90;;;;;;5036754;28;20055;-68
2023/10/07 00:05:46;;;;;;;0.13;0.13;;;15.70;99.90;;;;;;5039298;28;20064;-69
2023/10/07 00:08:12;;;;;;;0.28;0.28;;;15.70;99.90;;;;;;5042218;28;20059;-69
2023/10/07 00:10:40;;;;;;;1.83;0.80;;;15.70;99.90;;;;;;5035183;28;20063;-69
2023/10/07 00:13:09;;;;;;;8.20;0.73;;;15.70;99.90;;;;;;5069855;28;20049;-69
2023/10/07 00:15:36;;;;;;;0.35;0.35;;;15.80;99.90;;;;;;5043312;28;20048;-67
2023/10/07 00:18:12;;;;;;;0.43;0.43;;;15.80;99.90;;;;;;5037071;28;20094;-67
2023/10/07 00:20:48;;;;;;;0.40;0.32;;;15.80;99.90;;;;;;5036168;28;20036;-68
2023/10/07 00:23:20;;;;;;;3.13;0.95;;;15.90;99.90;;;;;;5050388;28;20053;-70
2023/10/07 00:25:50;;;;;;;1.15;0.55;;;15.90;99.90;;;;;;5041495;28;20055;-67
2023/10/07 00:28:31;;;;;;;0.28;0.28;;;16.00;99.90;;;;;;5044785;28;20062;-68
2023/10/07 00:31:02;;;;;;;3.90;0.43;;;16.00;99.90;;;;;;5046181;28;20123;-68
2023/10/07 00:33:30;;;;;;;0.47;0.30;;;16.00;99.90;;;;;;5039640;28;20043;-68
2023/10/07 00:36:01;;;;;;;2.25;0.93;;;16.00;99.90;;;;;;5061205;28;20044;-68
2023/10/07 00:38:37;;;;;;;3.33;0.77;;;16.00;99.90;;;;;;5064201;28;20506;-68
2023/10/07 00:41:03;;;;;;;0.20;0.20;;;16.10;99.90;;;;;;5040803;28;20064;-67
2023/10/07 00:43:32;;;;;;;1.65;0.20;;;16.10;99.90;;;;;;5056507;28;20039;-68
2023/10/07 00:46:10;;;;;;;1.10;0.70;;;16.10;99.90;;;;;;5037993;28;20049;-66
2023/10/07 00:48:52;;;;;;;3.55;0.30;;;16.10;99.90;;;;;;5040578;28;20437;-68
2023/10/07 00:51:33;;;;;;;0.50;0.50;;;16.20;99.90;;;;;;5038488;28;20116;-68
2023/10/07 00:56:51;;;;;;;0.40;0.40;;;16.20;99.90;;;;;;5037245;28;20061;-66
2023/10/07 00:59:19;;;;;;;0.98;0.30;;;16.20;99.90;;;;;;5037481;28;20049;-69
2023/10/07 01:01:49;;;;;;;0.30;0.30;;;16.30;99.90;;;;;;5044885;28;20142;-68
2023/10/07 01:04:16;;;;;;;0.30;0.30;;;16.30;99.90;;;;;;5050240;28;20056;-67
2023/10/07 01:06:45;;;;;;;1.63;0.50;;;16.30;99.90;;;;;;5041952;28;20463;-69
2023/10/07 01:09:22;;;;;;;4.90;0.90;;;16.30;99.90;;;;;;5043209;28;20103;-68
2023/10/07 01:11:57;;;;;;;0.30;0.30;;;16.30;99.90;;;;;;5061018;28;20040;-66
2023/10/07 01:14:33;;;;;;;0.85;0.85;;;16.40;99.90;;;;;;5060468;28;20044;-68
2023/10/07 01:17:00;;;;;;;0.28;0.28;;;16.40;99.90;;;;;;5061939;28;20411;-66
2023/10/07 01:22:01;;;;;;;0.80;0.80;;;16.40;99.90;;;;;;5035753;28;20047;-67
2023/10/07 01:27:06;;;;;;;0.10;0.10;;;16.40;99.90;;;;;;5057799;28;20573;-68
2023/10/07 01:29:34;;;;;;;0.50;0.25;;;16.40;99.90;;;;;;5034107;28;20087;-69
2023/10/07 01:32:00;;;;;;;4.15;1.00;;;16.40;99.90;;;;;;5042841;28;20051;-67
2023/10/07 01:34:30;;;;;;;0.90;0.57;;;16.40;99.90;;;;;;5050608;28;20136;-67
2023/10/07 01:36:57;;;;;;;0.28;0.28;;;16.40;99.90;;;;;;5040506;28;20543;-67
2023/10/07 01:39:23;;;;;;;0.30;0.30;;;16.40;99.90;;;;;;5039685;28;20155;-67
2023/10/07 01:41:49;;;;;;;0.30;0.20;;;16.40;99.90;;;;;;5046552;28;20037;-67
2023/10/07 01:44:15;;;;;;;5.75;0.90;;;16.40;99.90;;;;;;5054479;28;20041;-68
2023/10/07 01:46:43;;;;;;;0.77;0.25;;;16.40;99.90;;;;;;5039043;28;20165;-67
2023/10/07 01:49:12;;;;;;;0.75;0.75;;;16.40;99.90;;;;;;5041794;28;20170;-69
2023/10/07 01:51:44;;;;;;;1.67;1.52;;;16.40;99.90;;;;;;5040003;28;20063;-67
2023/10/07 01:54:11;;;;;;;0.52;0.32;;;16.50;99.90;;;;;;5040324;28;20079;-70
2023/10/07 01:56:38;;;;;;;1.00;0.85;;;16.50;99.90;;;;;;5036115;28;20583;-66
2023/10/07 02:01:42;;;;;;;0.47;0.28;;;16.60;99.90;;;;;;5035216;28;20102;-71
2023/10/07 02:04:16;;;;;;;0.32;0.32;;;16.60;99.90;;;;;;5063553;28;20032;-69
2023/10/07 02:06:51;;;;;;;0.82;0.52;;;16.60;99.90;;;;;;5027365;28;20033;-68
2023/10/07 02:09:24;;;;;;;0.10;0.10;;;16.70;99.90;;;;;;5058463;28;20468;-65
2023/10/07 02:11:54;;;;;;;0.22;0.22;;;16.60;99.90;;;;;;5033591;28;20090;-68
2023/10/07 02:14:24;;;;;;;1.02;0.98;;;16.70;99.90;;;;;;5040255;28;20048;-68
2023/10/07 02:16:50;;;;;;;0.65;0.63;;;16.70;99.90;;;;;;5042504;28;20036;-68
2023/10/07 02:19:27;;;;;;;0.75;0.75;;;16.70;99.90;;;;;;5041134;28;20072;-68
2023/10/07 02:21:59;;;;;;;3.05;0.35;;;16.70;99.90;;;;;;5073932;28;20626;-67
2023/10/07 02:24:28;;;;;;;0.20;0.20;;;16.70;99.90;;;;;;5039446;28;20507;-68
2023/10/07 02:26:55;;;;;;;0.30;0.30;;;16.80;99.90;;;;;;5055757;28;20040;-68
2023/10/07 02:29:21;;;;;;;1.23;1.13;;;16.70;99.90;;;;;;5036386;28;20127;-67
2023/10/07 02:31:49;;;;;;;0.68;0.68;;;16.80;99.90;;;;;;5041462;28;20048;-67
2023/10/07 02:34:28;;;;;;;5.50;0.20;;;16.80;99.90;;;;;;5040113;28;20077;-68
2023/10/07 02:37:06;;;;;;;0.55;0.40;;;16.80;99.90;;;;;;5060895;28;20049;-66
2023/10/07 02:39:45;;;;;;;0.40;0.40;;;16.90;99.90;;;;;;5038672;28;20137;-68
2023/10/07 02:42:28;;;;;;;0.85;0.25;;;16.90;99.90;;;;;;5041947;28;20045;-68
2023/10/07 02:45:50;;;;;;;2.05;1.73;;;16.90;99.90;;;;;;5050661;28;20351;-67
2023/10/07 02:47:50;;;;;;;0.20;0.20;;;16.90;99.90;;;;;;5019901;28;20055;-68
2023/10/07 02:50:17;;;;;;;2.10;0.47;;;16.90;99.90;;;;;;5037212;28;20115;-68
2023/10/07 02:52:46;;;;;;;3.70;0.60;;;16.90;99.90;;;;;;5066547;28;20033;-67
2023/10/07 02:57:41;;;;;;;0.50;0.30;;;16.90;99.90;;;;;;5031163;28;20077;-66
2023/10/07 03:00:29;;;;;;;0.43;0.32;;;17.00;99.90;;;;;;5033746;28;20041;-66
2023/10/07 03:03:10;;;;;;;0.45;0.45;;;17.00;99.90;;;;;;5068801;28;20045;-67
2023/10/07 03:05:43;;;;;;;1.75;0.65;;;17.00;99.90;;;;;;5042736;28;20049;-69
2023/10/07 03:08:22;;;;;;;0.75;0.57;;;17.00;99.90;;;;;;5033800;28;20048;-70
2023/10/07 03:11:03;;;;;;;1.48;0.20;;;17.00;99.90;;;;;;5036903;28;20117;-69
2023/10/07 03:13:37;;;;;;;0.40;0.40;;;17.00;99.90;;;;;;5070705;28;20515;-67
2023/10/07 03:18:56;;;;;;;2.45;0.95;;;17.00;99.90;;;;;;5042560;28;20159;-68
2023/10/07 03:21:35;;;;;;;5.03;1.27;;;17.00;99.90;;;;;;5045772;28;20040;-69
2023/10/07 03:24:01;;;;;;;1.00;0.43;;;17.00;99.90;;;;;;5049619;28;20071;-67
2023/10/07 03:26:32;;;;;;;0.45;0.45;;;17.00;99.90;;;;;;5046902;28;20040;-69
2023/10/07 03:28:58;;;;;;;0.77;0.77;;;17.00;99.90;;;;;;5049229;28;20044;-68
2023/10/07 03:31:35;;;;;;;6.03;0.55;;;17.00;99.90;;;;;;5046839;28;20123;-67
2023/10/07 03:34:03;;;;;;;1.98;0.50;;;17.00;99.90;;;;;;5049973;28;20041;-67
2023/10/07 03:36:41;;;;;;;0.17;0.17;;;17.00;99.90;;;;;;5042316;28;20043;-69
2023/10/07 03:41:51;;;;;;;0.73;0.50;;;17.10;99.90;;;;;;5060754;28;20083;-68
2023/10/07 03:44:20;;;;;;;1.35;1.33;;;17.10;99.90;;;;;;5039840;28;20079;-68
2023/10/07 03:46:48;;;;;;;1.55;0.75;;;17.10;99.90;;;;;;5072910;28;20127;-67
2023/10/07 03:49:15;;;;;;;0.82;0.82;;;17.10;99.90;;;;;;5047544;28;20047;-67
2023/10/07 03:51:48;;;;;;;2.80;0.98;;;17.10;99.90;;;;;;5056547;28;20072;-69
2023/10/07 03:54:18;;;;;;;0.28;0.25;;;17.20;99.90;;;;;;5067757;28;20037;-69
2023/10/07 03:56:43;;;;;;;0.30;0.30;;;17.20;99.90;;;;;;5048884;28;20044;-70
2023/10/07 03:59:09;;;;;;;1.42;0.88;;;17.20;99.90;;;;;;5083904;28;20048;-68
2023/10/07 04:01:42;;;;;;;0.82;0.82;;;17.20;99.90;;;;;;5050235;28;20040;-67
2023/10/07 04:04:11;;;;;;;0.65;0.38;;;17.10;99.90;;;;;;5069993;28;20048;-68
2023/10/07 04:06:38;;;;;;;1.23;0.40;;;17.20;99.90;;;;;;5037367;28;20045;-67
2023/10/07 04:09:11;;;;;;;1.17;1.08;;;17.20;99.90;;;;;;5049252;28;20500;-66
2023/10/07 04:11:39;;;;;;;0.20;0.20;;;17.20;99.90;;;;;;5048386;28;20063;-67
2023/10/07 04:14:15;;;;;;;1.08;0.90;;;17.20;99.90;;;;;;5067706;28;20038;-68
2023/10/07 04:16:42;;;;;;;0.50;0.30;;;17.20;99.90;;;;;;5067761;28;20051;-66
2023/10/07 04:21:42;;;;;;;0.28;0.28;;;17.20;99.90;;;;;;5043460;28;20059;-66
2023/10/07 04:24:11;;;;;;;0.32;0.32;;;17.10;99.90;;;;;;5079570;28;20036;-68
2023/10/07 04:26:51;;;;;;;0.50;0.50;;;17.20;99.90;;;;;;5033376;28;20053;-68
2023/10/07 04:29:18;;;;;;;1.38;0.88;;;17.20;99.90;;;;;;5039432;28;20102;-66
2023/10/07 04:31:51;;;;;;;7.18;1.20;;;17.20;99.90;;;;;;5051863;28;20033;-68
2023/10/07 04:34:20;;;;;;;1.75;1.00;;;17.10;99.90;;;;;;5061524;28;20036;-68
2023/10/07 04:39:31;;;;;;;0.15;0.15;;;17.20;99.90;;;;;;5046962;28;20063;-67
2023/10/07 04:42:03;;;;;;;1.17;0.68;;;17.20;99.90;;;;;;5041058;28;20045;-68
2023/10/07 04:50:16;;;;;;;2.08;0.98;;;17.20;99.90;;;;;;5049122;28;20048;-67
2023/10/07 04:52:51;;;;;;;0.32;0.20;;;17.20;99.90;;;;;;5043085;28;20087;-67
2023/10/07 04:55:25;;;;;;;2.63;0.40;;;17.20;99.90;;;;;;5059716;28;20041;-67
2023/10/07 05:00:36;;;;;;;2.50;0.47;;;17.10;99.90;;;;;;5047857;28;20040;-68
2023/10/07 05:03:15;;;;;;;1.45;1.35;;;17.10;99.90;;;;;;5052578;28;20048;-67
2023/10/07 05:05:45;;;;;;;6.05;1.40;;;17.00;99.90;;;;;;5053339;28;20047;-66
2023/10/07 05:08:11;;;;;;;1.00;0.50;;;17.00;99.90;;;;;;5047898;28;20081;-67
2023/10/07 05:10:43;;;;;;;0.55;0.55;;;17.00;99.90;;;;;;5066087;28;20063;-68
2023/10/07 05:13:09;;;;;;;;;;;17.00;99.90;;;;;;5045779;28;20040;-68
2023/10/07 05:15:41;;;;;;;2.97;0.70;;;16.90;99.90;;;;;;5028429;28;19963;-67
2023/10/07 05:18:07;;;;;;;0.30;0.30;;;16.90;99.90;;;;;;5045904;28;20045;-68
2023/10/07 05:20:37;;;;;;;0.10;0.10;;;16.90;99.90;;;;;;5040784;28;20135;-69
2023/10/07 05:23:04;;;;;;;3.17;1.58;;;17.00;99.90;;;;;;5039559;28;20549;-67
2023/10/07 05:25:35;;;;;;;1.80;0.77;;;17.00;99.90;;;;;;5042565;28;20341;-68
2023/10/07 05:28:06;;;;;;;0.63;0.63;;;17.00;99.90;;;;;;5050570;28;20037;-67
2023/10/07 05:30:32;;;;;;;0.65;0.30;;;16.90;99.90;;;;;;5063251;28;20383;-68
2023/10/07 05:33:00;;;;;;;0.45;0.45;;;16.90;99.90;;;;;;5045306;28;20043;-68
2023/10/07 05:35:26;;;;;;;0.10;0.10;;;16.90;99.90;;;;;;5067144;28;20045;-67
2023/10/07 05:37:52;;;;;;;1.85;0.57;;;16.90;99.90;;;;;;5049114;28;20055;-66
2023/10/07 05:40:21;;;;;;;0.35;0.35;;;16.90;99.90;;;;;;5052201;28;20044;-69
2023/10/07 05:42:46;;;;;;;0.10;0.10;;;16.90;99.90;;;;;;5059699;28;20049;-68
2023/10/07 05:45:14;;;;;;;0.10;0.10;;;16.90;99.90;;;;;;5040959;28;20044;-69
2023/10/07 05:47:40;;;;;;;0.57;0.20;;;16.90;99.90;;;;;;5050817;28;20044;-68
2023/10/07 05:50:06;;;;;;;0.80;0.55;;;16.80;99.90;;;;;;5041738;28;20480;-66
2023/10/07 05:52:32;;;;;;;0.30;0.30;;;16.80;99.90;;;;;;5037883;28;20052;-66
2023/10/07 05:54:57;;;;;;;0.22;0.22;;;16.80;99.90;;;;;;5046862;28;20076;-69
2023/10/07 05:57:24;;;;;;;0.63;0.40;;;16.80;99.90;;;;;;5029396;28;20076;-66
2023/10/07 05:59:51;;;;;;;1.55;0.80;;;16.80;99.90;;;;;;5042162;28;20422;-67
2023/10/07 06:02:17;;;;;;;1.77;1.58;;;16.80;99.90;;;;;;5057738;28;20080;-68
2023/10/07 06:04:44;;;;;;;2.42;1.25;;;16.80;99.90;;;;;;5036000;28;20068;-67
2023/10/07 06:07:13;;;;;;;0.80;0.70;;;16.80;99.90;;;;;;5044818;28;20053;-66
2023/10/07 06:09:42;;;;;;;3.42;0.73;;;16.80;99.90;;;;;;5037398;28;20095;-66
2023/10/07 06:12:09;;;;;;;2.25;0.68;;;16.90;99.90;;;;;;5057041;28;20041;-66
2023/10/07 06:14:38;;;;;;;0.65;0.65;;;16.80;99.90;;;;;;5041099;28;20048;-68
2023/10/07 06:17:06;;;;;;;0.30;0.30;;;16.90;99.90;;;;;;5042982;28;20033;-66
2023/10/07 06:19:36;;;;;;;0.75;0.75;;;16.90;99.90;;;;;;5040334;28;20544;-67
2023/10/07 06:22:10;;;;;;;1.00;0.73;;;16.90;99.90;;;;;;5045920;28;20078;-66
2023/10/07 06:24:37;;;;;;;0.30;0.30;;;16.80;99.90;;;;;;5052212;28;20040;-66
2023/10/07 06:27:06;;;;;;;0.43;0.32;;;16.80;99.90;;;;;;5045138;28;20049;-67
2023/10/07 06:29:32;;;;;;;0.95;0.80;;;16.90;99.90;;;;;;5072395;28;20036;-66
2023/10/07 06:34:42;;;;;;;0.65;0.43;;;16.80;99.90;;;;;;5042772;28;20044;-67
2023/10/07 06:37:08;;;;;;;2.67;0.93;;;16.80;99.90;;;;;;5062976;28;20033;-66
2023/10/07 06:39:33;;;;;;;0.90;0.60;;;16.80;99.90;;;;;;5044107;28;20541;-68
2023/10/07 06:41:59;;;;;;;0.75;0.55;;;16.70;99.90;;;;;;5062927;28;20440;-67
2023/10/07 06:44:27;;;;;;;0.30;0.30;;;16.70;99.90;;;;;;5054881;28;20036;-66
2023/10/07 06:46:56;;;;;;;0.70;0.55;;;16.80;99.90;;;;;;5054058;28;20252;-67
2023/10/07 06:49:22;;;;;;;2.45;0.60;;;16.80;99.90;;;;;;5063572;28;20044;-68
2023/10/07 06:51:54;;;;;;;2.70;0.98;;;16.80;99.90;;;;;;5071049;27;20413;-66
2023/10/07 06:54:25;;;;;;;0.63;0.60;;;16.80;99.90;;;;;;5070951;28;20097;-67
2023/10/07 06:56:51;;;;;;;0.10;0.10;;;16.80;99.90;;;;;;5065753;28;20033;-67
2023/10/07 06:59:17;;;;;;;1.77;0.40;;;16.80;99.90;;;;;;5065744;28;20391;-67
2023/10/07 07:04:10;;;;;;;0.68;0.55;;;16.90;99.90;;;;;;5082408;28;20407;-66
2023/10/07 07:06:44;;;;;;;0.40;0.40;;;16.90;99.90;;;;;;5080326;28;20106;-67
2023/10/07 07:12:03;;;;;;;2.00;0.88;;;17.00;99.90;;;;;;5085656;28;20057;-66
2023/10/07 07:14:29;;;;;;;0.88;0.88;;;17.00;99.90;;;;;;5066124;28;20683;-67
2023/10/07 07:16:56;;;;;;;1.10;0.73;;;17.10;99.90;;;;;;5064289;28;20051;-67
2023/10/07 07:19:25;;;;;;;2.78;0.82;;;17.10;99.90;;;;;;5075352;28;20063;-65
2023/10/07 07:21:51;;;;;;;0.60;0.60;;;17.20;99.90;;;;;;5069695;28;20032;-66
2023/10/07 07:24:23;;;;;;;0.47;0.47;;;17.30;99.90;;;;;;5067038;28;20031;-66
2023/10/07 07:26:52;;;;;;;;;;;17.30;99.90;;;;;;5072607;28;20064;-67
2023/10/07 07:29:23;;;;;;;0.35;0.35;;;17.50;99.90;;;;;;5072443;28;19921;-68
2023/10/07 07:31:49;;;;;;;2.72;0.70;;;17.50;99.90;;;;;;5060455;28;20095;-66
2023/10/07 07:34:25;;;;;;;4.28;0.90;;;17.50;99.90;;;;;;5083083;28;20068;-66
2023/10/07 07:37:03;;;;;;;0.20;0.20;;;17.60;99.90;;;;;;5080874;28;20094;-68
2023/10/07 07:39:32;;;;;;;0.30;0.30;;;17.70;99.90;;;;;;5062562;28;20047;-66
2023/10/07 07:42:22;;;;;;;5.03;1.27;;;17.70;99.90;;;;;;5049674;28;20509;-67
2023/10/07 07:44:57;;;;;;;0.20;0.20;;;17.70;99.90;;;;;;5076379;28;20033;-67
2023/10/07 07:47:24;;;;;;;0.50;0.50;;;17.70;99.90;;;;;;5060759;28;20040;-66
2023/10/07 07:49:51;;;;;;;0.63;0.40;;;17.60;99.90;;;;;;5066250;28;20391;-67
2023/10/07 07:52:17;;;;;;;0.30;0.30;;;17.70;99.90;;;;;;5061288;28;20046;-66
2023/10/07 07:54:42;;;;;;;0.85;0.82;;;17.70;99.90;;;;;;5057171;28;20040;-66
2023/10/07 07:57:08;;;;;;;1.05;0.60;;;17.70;99.90;;;;;;5064712;28;20048;-66
2023/10/07 07:59:34;;;;;;;1.65;0.43;;;17.70;99.90;;;;;;5059263;28;20172;-65
2023/10/07 08:02:12;;;;;;;0.50;0.50;;;17.70;99.90;;;;;;5052786;28;20040;-67
2023/10/07 08:04:48;;;;;;;0.17;0.17;;;17.70;99.90;;;;;;5044540;28;20082;-65
2023/10/07 08:09:55;;;;;;;3.25;0.50;;;17.80;99.90;;;;;;5040507;28;20060;-65
2023/10/07 08:12:29;;;;;;;1.00;1.00;;;17.90;99.90;;;;;;5055770;28;20081;-66
2023/10/07 08:14:58;;;;;;;4.03;1.30;;;17.90;99.90;;;;;;5047751;28;20419;-67
2023/10/07 08:17:27;;;;;;;0.88;0.35;;;17.90;99.90;;;;;;5054212;28;20446;-67
2023/10/07 08:19:53;;;;;;;1.35;0.95;;;17.90;99.90;;;;;;5048603;28;20061;-67
2023/10/07 08:22:20;;;;;;;1.00;0.90;;;17.90;99.90;;;;;;5052126;28;20045;-65
2023/10/07 08:24:49;;;;;;;1.10;0.70;;;17.90;99.90;;;;;;5073788;28;20037;-67
2023/10/07 08:30:06;;;;;;;0.40;0.35;;;18.00;99.90;;;;;;5063648;28;20059;-67
2023/10/07 08:32:41;;;;;;;0.20;0.20;;;18.20;99.90;;;;;;5048314;28;20037;-66
2023/10/07 08:35:18;;;;;;;2.80;1.23;;;18.30;99.90;;;;;;5073333;28;20040;-66
2023/10/07 08:37:45;;;;;;;0.85;0.82;;;18.40;99.90;;;;;;5049844;28;20044;-66
2023/10/07 08:40:26;;;;;;;0.47;0.47;;;18.50;99.90;;;;;;5045906;28;20055;-68
2023/10/07 08:43:04;;;;;;;1.55;1.20;;;18.40;99.90;;;;;;5061741;28;20048;-68
2023/10/07 08:45:39;;;;;;;1.50;0.95;;;18.40;99.90;;;;;;5048518;28;20094;-65
2023/10/07 08:48:15;;;;;;;0.40;0.40;;;18.40;99.90;;;;;;5054818;28;20400;-66
2023/10/07 08:50:55;;;;;;;1.67;0.68;;;18.30;99.90;;;;;;5061691;28;20049;-66
2023/10/07 08:53:26;;;;;;;4.68;1.00;;;18.30;99.90;;;;;;5043490;28;20037;-65
2023/10/07 08:56:00;;;;;;;1.45;0.93;;;18.30;99.90;;;;;;5036396;28;20440;-67
2023/10/07 08:58:28;;;;;;;0.03;0.03;;;18.40;99.90;;;;;;5043059;28;20048;-67
2023/10/07 09:00:56;;;;;;;0.60;0.32;;;18.40;99.90;;;;;;5046591;28;20057;-69
2023/10/07 09:03:26;;;;;;;1.20;0.50;;;18.50;99.90;;;;;;5048086;28;20488;-67
2023/10/07 09:05:54;;;;;;;1.95;0.28;;;18.60;99.90;;;;;;5064259;28;20041;-66
2023/10/07 09:08:22;;;;;;;0.25;0.25;;;18.60;99.90;;;;;;5062963;28;20095;-66
2023/10/07 09:10:51;;;;;;;1.17;0.57;;;18.70;99.90;;;;;;5047237;28;20407;-66
2023/10/07 09:13:26;;;;;;;0.10;0.10;;;18.70;99.90;;;;;;5057476;28;20083;-68
2023/10/07 09:15:53;;;;;;;21.45;0.70;;;18.70;99.90;;;;;;5043409;28;20060;-68
2023/10/07 09:18:22;;;;;;;0.93;0.70;;;18.80;99.90;;;;;;5048221;28;20041;-67
2023/10/07 09:20:50;;;;;;;0.20;0.20;;;18.80;99.90;;;;;;5046995;28;20053;-66
2023/10/07 09:23:19;;;;;;;0.20;0.20;;;18.90;99.90;;;;;;5047683;28;20064;-69
2023/10/07 09:25:52;;;;;;;0.55;0.50;;;19.10;99.90;;;;;;5058508;28;20045;-67
2023/10/07 09:28:30;;;;;;;1.65;0.40;;;19.10;99.90;;;;;;5047196;28;20447;-67
2023/10/07 09:30:59;;;;;;;0.70;0.70;;;19.20;99.90;;;;;;5031117;28;20046;-67
2023/10/07 09:33:35;;;;;;;1.45;1.00;;;19.30;99.90;;;;;;5047384;28;20045;-67
2023/10/07 09:38:48;;;;;;;0.80;0.80;;;19.40;99.90;;;;;;5047330;28;20128;-67
2023/10/07 09:41:32;;;;;;;1.40;0.88;;;19.50;99.90;;;;;;5041447;28;20041;-66
2023/10/07 09:44:00;;;;;;;0.80;0.60;;;19.60;99.90;;;;;;5050363;28;20049;-66
2023/10/07 09:46:27;;;;;;;0.40;0.40;;;19.60;99.90;;;;;;5050645;28;20056;-66
2023/10/07 09:48:56;;;;;;;1.02;0.65;;;19.50;99.90;;;;;;5069316;28;20053;-66
2023/10/07 09:51:24;;;;;;;1.55;0.63;;;19.40;99.90;;;;;;5051542;28;20132;-66
2023/10/07 09:54:09;;;;;;;0.30;0.25;;;19.30;99.90;;;;;;5030063;28;20045;-66
2023/10/07 09:56:44;;;;;;;2.28;0.63;;;19.20;99.90;;;;;;5044821;28;20044;-67
2023/10/07 09:59:32;;;;;;;0.50;0.50;;;19.20;99.90;;;;;;5040963;28;20087;-67
2023/10/07 10:02:16;;;;;;;0.25;0.25;;;19.10;99.90;;;;;;5073822;28;20045;-66
2023/10/07 10:05:00;;;;;;;2.08;0.30;;;19.00;99.90;;;;;;5051260;28;20044;-66
2023/10/07 10:08:04;;;;;;;0.40;0.40;;;18.90;99.90;;;;;;5050239;28;20041;-67
2023/10/07 10:10:32;;;;;;;0.70;0.47;;;18.90;99.90;;;;;;5066662;28;20502;-66
2023/10/07 10:18:06;;;;;;;14.18;1.00;;;18.80;99.90;;;;;;5034818;28;20120;-70
2023/10/07 10:20:45;;;;;;;1.98;1.23;;;18.80;99.90;;;;;;5047861;28;20080;-72
2023/10/07 10:23:19;;;;;;;0.75;0.40;;;18.80;99.90;;;;;;5074398;28;20470;-71
2023/10/07 10:25:52;;;;;;;0.85;0.55;;;18.90;99.90;;;;;;5061433;28;20067;-70
2023/10/07 10:28:27;;;;;;;0.77;0.77;;;19.00;99.90;;;;;;5036931;28;20036;-70
2023/10/07 10:30:56;;;;;;;0.45;0.45;;;19.00;99.90;;;;;;5048474;28;20403;-70
2023/10/07 10:33:25;;;;;;;2.95;0.80;;;19.00;99.90;;;;;;5045952;28;20439;-71
2023/10/07 10:35:57;;;;;;;0.70;0.32;;;19.00;99.90;;;;;;5030637;28;20051;-71
2023/10/07 10:38:37;;;;;;;0.68;0.68;;;19.20;99.90;;;;;;5061751;28;20044;-69
2023/10/07 10:41:04;;;;;;;0.50;0.50;;;19.20;99.90;;;;;;5040891;28;20296;-72
2023/10/07 10:43:31;;;;;;;0.93;0.88;;;19.20;99.90;;;;;;5046438;28;20045;-70
2023/10/07 10:46:07;;;;;;;0.57;0.25;;;19.20;99.90;;;;;;5064647;28;20381;-73
2023/10/07 10:48:34;;;;;;;2.30;1.17;;;19.20;99.90;;;;;;5066687;28;20072;-71
2023/10/07 10:51:05;;;;;;;0.52;0.52;;;19.20;99.90;;;;;;5028940;28;20072;-71
2023/10/07 10:53:41;;;;;;;0.63;0.63;;;19.10;99.90;;;;;;5046480;28;20112;-70
2023/10/07 10:56:13;;;;;;;1.05;0.98;;;19.00;99.90;;;;;;5033794;28;20041;-70
2023/10/07 10:58:39;;;;;;;4.80;0.98;;;19.00;99.90;;;;;;5029249;28;20088;-71
2023/10/07 11:01:05;;;;;;;0.98;0.85;;;18.90;99.90;;;;;;5039629;28;20072;-70
2023/10/07 11:03:31;;;;;;;0.50;0.50;;;18.90;99.90;;;;;;5012935;28;20046;-71
2023/10/07 11:05:57;;;;;;;1.10;0.80;;;18.90;99.90;;;;;;5040919;28;20049;-68
2023/10/07 11:08:28;;;;;;;0.50;0.50;;;18.90;99.90;;;;;;5046236;28;20056;-69
2023/10/07 11:10:58;;;;;;;0.68;0.17;;;18.90;99.90;;;;;;5079233;28;20072;-73
2023/10/07 11:13:29;;;;;;;0.15;0.15;;;18.90;99.90;;;;;;5048858;28;20033;-70
2023/10/07 11:15:58;;;;;;;1.92;0.20;;;19.00;99.90;;;;;;5046788;28;20041;-70
2023/10/07 11:18:25;;;;;;;0.55;0.55;;;19.00;99.90;;;;;;5029358;28;20081;-72
2023/10/07 11:20:50;;;;;;;0.28;0.20;;;19.00;99.90;;;;;;5045351;28;20088;-72
2023/10/07 11:23:16;;;;;;;1.10;0.55;;;19.10;99.90;;;;;;5061415;28;20654;-70
2023/10/07 11:25:42;;;;;;;0.57;0.20;;;19.20;99.90;;;;;;5043357;28;20373;-73
2023/10/07 11:28:09;;;;;;;1.88;0.80;;;19.40;99.90;;;;;;5047395;28;20045;-74
2023/10/07 11:30:48;;;;;;;0.93;0.40;;;19.70;99.90;;;;;;5063928;28;20062;-69
2023/10/07 11:33:17;;;;;;;0.57;0.57;;;19.90;99.90;;;;;;5060771;28;20535;-71
2023/10/07 11:35:45;;;;;;;1.55;0.70;;;19.90;99.90;;;;;;5050220;28;20427;-70
2023/10/07 11:38:12;;;;;;;1.38;1.35;;;19.70;99.90;;;;;;5050552;28;20036;-70
2023/10/07 11:40:39;;;;;;;0.43;0.43;;;19.60;99.90;;;;;;5047751;28;20044;-72
2023/10/07 11:43:08;;;;;;;0.47;0.47;;;19.50;99.90;;;;;;5044367;28;20504;-71
2023/10/07 11:45:35;;;;;;;3.10;0.85;;;19.40;99.90;;;;;;5067661;28;20041;-71
2023/10/07 11:48:04;;;;;;;1.13;1.02;;;19.30;99.90;;;;;;5036121;28;20053;-72
2023/10/07 11:50:35;;;;;;;4.63;0.45;;;19.30;99.90;;;;;;5048604;28;20045;-69
2023/10/07 11:53:01;;;;;;;3.40;1.27;;;19.30;99.90;;;;;;5038584;28;20094;-71
2023/10/07 11:55:27;;;;;;;0.63;0.63;;;19.50;99.90;;;;;;5044550;28;20037;-69
2023/10/07 11:57:53;;;;;;;3.25;1.02;;;19.60;99.90;;;;;;5051231;28;20044;-71
2023/10/07 12:00:29;;;;;;;0.28;0.28;;;19.60;99.90;;;;;;5047334;28;20053;-70
2023/10/07 12:02:57;;;;;;;0.45;0.30;;;19.70;99.90;;;;;;5049524;28;20041;-71
2023/10/07 12:05:27;;;;;;;2.83;1.27;;;19.70;99.90;;;;;;5065907;28;20085;-70
2023/10/07 12:07:56;;;;;;;0.65;0.38;;;19.80;99.90;;;;;;5044473;28;20488;-69
2023/10/07 12:10:22;;;;;;;0.82;0.60;;;19.80;99.90;;;;;;5052912;28;20047;-70
2023/10/07 12:12:52;;;;;;;1.15;0.73;;;19.80;99.90;;;;;;5052670;28;20124;-69
2023/10/07 12:15:18;;;;;;;0.38;0.38;;;19.80;99.90;;;;;;5068638;28;20049;-71
2023/10/07 12:17:44;;;;;;;1.15;0.75;;;19.70;99.90;;;;;;5038687;28;20045;-67
2023/10/07 12:20:13;;;;;;;0.95;0.30;;;19.60;99.90;;;;;;5047797;28;20060;-72
2023/10/07 12:22:42;;;;;;;2.20;0.47;;;19.50;99.90;;;;;;5040944;28;20034;-70
2023/10/07 12:25:16;;;;;;;0.90;0.75;;;19.30;99.90;;;;;;5043879;28;20041;-71
2023/10/07 12:27:43;;;;;;;0.70;0.70;;;19.30;99.90;;;;;;5048731;28;20045;-70
2023/10/07 12:30:11;;;;;;;0.30;0.30;;;19.30;99.90;;;;;;5041915;28;20042;-71
2023/10/07 12:32:45;;;;;;;0.80;0.50;;;19.30;99.90;;;;;;5037052;28;20037;-71
2023/10/07 12:35:11;;;;;;;0.17;0.17;;;19.20;99.90;;;;;;5058379;28;20040;-73
2023/10/07 12:37:41;;;;;;;0.90;0.63;;;19.20;99.90;;;;;;5038476;28;20369;-71
2023/10/07 12:40:11;;;;;;;1.45;0.30;;;19.30;99.90;;;;;;5071730;28;20052;-71
2023/10/07 12:42:52;;;;;;;3.03;0.30;;;19.40;99.90;;;;;;5044979;28;20650;-69
2023/10/07 12:45:18;;;;;;;2.28;0.65;;;19.60;99.90;;;;;;5047233;28;20074;-71
2023/10/07 12:47:45;;;;;;;1.70;1.15;;;19.60;99.90;;;;;;5038004;28;20514;-73
2023/10/07 12:50:20;;;;;;;2.30;1.35;;;19.60;99.90;;;;;;5067576;28;20037;-73
2023/10/07 12:52:50;;;;;;;1.08;0.43;;;19.60;99.90;;;;;;5055662;28;20052;-69
2023/10/07 12:55:19;;;;;;;0.63;0.55;;;19.60;99.90;;;;;;5054239;28;20037;-71
2023/10/07 12:57:45;;;;;;;0.10;0.10;;;19.60;99.90;;;;;;5042847;28;20041;-72
2023/10/07 13:00:22;;;;;;;0.20;0.20;;;19.60;99.90;;;;;;5051443;28;20072;-68
2023/10/07 13:02:53;;;;;;;0.43;0.43;;;19.50;99.90;;;;;;5057230;28;20049;-72
2023/10/07 13:05:19;;;;;;;0.50;0.40;;;19.50;99.90;;;;;;5040105;28;20063;-71
2023/10/07 13:07:54;;;;;;;0.47;0.43;;;19.40;99.90;;;;;;5054295;28;20679;-71
2023/10/07 13:10:20;;;;;;;3.30;1.85;;;19.40;99.90;;;;;;5052916;28;20041;-74
2023/10/07 13:12:57;;;;;;;1.33;1.13;;;19.40;99.90;;;;;;5040927;28;20033;-70
2023/10/07 13:15:30;;;;;;;0.35;0.35;;;19.40;99.90;;;;;;5056585;28;20037;-71
2023/10/07 13:17:58;;;;;;;0.65;0.65;;;19.50;99.90;;;;;;5055591;28;20092;-69
2023/10/07 13:20:26;;;;;;;1.35;0.30;;;19.50;99.90;;;;;;5066313;28;20045;-72
2023/10/07 13:22:57;;;;;;;0.32;0.32;;;19.50;99.90;;;;;;5056497;28;20503;-71
2023/10/07 13:25:24;;;;;;;1.87;0.60;;;19.40;99.90;;;;;;5035584;28;20420;-70
2023/10/07 13:27:49;;;;;;;0.30;0.30;;;19.30;99.90;;;;;;5066784;28;20310;-70
2023/10/07 13:30:16;;;;;;;1.60;1.50;;;19.30;99.90;;;;;;5038562;28;20037;-71
2023/10/07 13:32:46;;;;;;;0.52;0.40;;;19.20;99.90;;;;;;5039492;28;20045;-71
2023/10/07 13:35:15;;;;;;;1.05;0.65;;;19.20;99.90;;;;;;5058432;28;20094;-70
2023/10/07 13:37:44;;;;;;;0.35;0.35;;;19.10;99.90;;;;;;5040791;28;20079;-67
2023/10/07 13:40:16;;;;;;;10.85;1.55;;;19.10;99.90;;;;;;5043796;28;20049;-67
2023/10/07 13:42:50;;;;;;;12.48;0.43;;;19.20;99.90;;;;;;5039056;28;20123;-72
2023/10/07 13:45:23;;;;;;;1.08;0.90;;;19.20;99.90;;;;;;5054814;28;20059;-69
2023/10/07 13:47:50;;;;;;;2.65;0.73;;;19.20;99.90;;;;;;5057455;28;20068;-71
2023/10/07 13:50:20;;;;;;;0.57;0.55;;;19.10;99.90;;;;;;5073423;28;20048;-70
2023/10/07 13:53:09;;;;;;;0.30;0.30;;;19.00;99.90;;;;;;5040997;28;20033;-69
2023/10/07 13:58:12;;;;;;;2.38;0.40;;;18.80;99.90;;;;;;5051141;28;20377;-73
2023/10/07 14:00:44;;;;;;;0.60;0.57;;;18.80;99.90;;;;;;5068773;28;20185;-69